Mount Philo, Vermont
Current Conditions -  °F | °C
As of 11:54 AM on Thursday 30 Oct 2014 (Local Time) from KBTV Reporting Station
Broken Clouds Broken Clouds  
Wind Chill: 44°   Ceiling: 3900
Heat Index: 48°   Visibility: 10mi
Dew Point: 35°   Wind: 9mph
Humidity: 61%   Direction: 310°NW
Pressure: 29.97"   Gusts: NA
Location:  44.2438°N, 73.1915°W
Report Text: KBTV 301554Z 31008KT 10SM SCT028 BKN039 09/02 A2997 RMK AO2 SLP151 T00890017
Loading
Personal Weather Stations






























Interactive Weather Map
Tropical Storm Tracking
New forecast layout! Learn more

10-Day Weather Forecast

Advertisements
Track Severe Weather on mobile